sensor_id;sensor_type;location;lat;lon;timestamp;temperature;humidity
16198;DHT22;8206;51.440;6.914;2023-08-30T00:02:26;14.00;99.90
16198;DHT22;8206;51.440;6.914;2023-08-30T00:04:58;14.00;1.00
16198;DHT22;8206;51.440;6.914;2023-08-30T00:09:52;13.90;1.00
16198;DHT22;8206;51.440;6.914;2023-08-30T00:12:18;13.80;1.00
16198;DHT22;8206;51.440;6.914;2023-08-30T00:14:45;13.80;1.00
16198;DHT22;8206;51.440;6.914;2023-08-30T00:17:13;13.70;1.00
16198;DHT22;8206;51.440;6.914;2023-08-30T00:19:40;13.70;1.00
16198;DHT22;8206;51.440;6.914;2023-08-30T00:22:07;13.60;1.00
16198;DHT22;8206;51.440;6.914;2023-08-30T00:24:34;13.60;1.00
16198;DHT22;8206;51.440;6.914;2023-08-30T00:27:01;13.50;1.00
16198;DHT22;8206;51.440;6.914;2023-08-30T00:29:28;13.50;1.00
16198;DHT22;8206;51.440;6.914;2023-08-30T00:31:55;13.50;1.00
16198;DHT22;8206;51.440;6.914;2023-08-30T00:34:23;13.40;1.00
16198;DHT22;8206;51.440;6.914;2023-08-30T00:36:50;13.50;80.90
16198;DHT22;8206;51.440;6.914;2023-08-30T00:39:16;13.40;1.00
16198;DHT22;8206;51.440;6.914;2023-08-30T00:41:43;13.40;1.00
16198;DHT22;8206;51.440;6.914;2023-08-30T00:44:10;13.30;29.60
16198;DHT22;8206;51.440;6.914;2023-08-30T00:46:37;13.30;99.90
16198;DHT22;8206;51.440;6.914;2023-08-30T00:49:04;13.30;19.10
16198;DHT22;8206;51.440;6.914;2023-08-30T00:51:33;13.30;99.90
16198;DHT22;8206;51.440;6.914;2023-08-30T00:54:00;13.20;30.50
16198;DHT22;8206;51.440;6.914;2023-08-30T00:56:27;13.20;32.10
16198;DHT22;8206;51.440;6.914;2023-08-30T00:58:55;13.20;99.90
16198;DHT22;8206;51.440;6.914;2023-08-30T01:01:21;13.10;83.10
16198;DHT22;8206;51.440;6.914;2023-08-30T01:03:48;13.10;99.90
16198;DHT22;8206;51.440;6.914;2023-08-30T01:06:15;13.00;99.90
16198;DHT22;8206;51.440;6.914;2023-08-30T01:08:43;13.00;1.00
16198;DHT22;8206;51.440;6.914;2023-08-30T01:11:16;13.00;99.90
16198;DHT22;8206;51.440;6.914;2023-08-30T01:13:50;13.00;99.90
16198;DHT22;8206;51.440;6.914;2023-08-30T01:16:19;13.00;1.00
16198;DHT22;8206;51.440;6.914;2023-08-30T01:18:47;12.90;1.00
16198;DHT22;8206;51.440;6.914;2023-08-30T01:21:23;12.90;99.90
16198;DHT22;8206;51.440;6.914;2023-08-30T01:23:58;13.00;1.00
16198;DHT22;8206;51.440;6.914;2023-08-30T01:26:44;13.00;99.90
16198;DHT22;8206;51.440;6.914;2023-08-30T01:29:16;12.90;99.90
16198;DHT22;8206;51.440;6.914;2023-08-30T01:31:46;12.90;1.00
16198;DHT22;8206;51.440;6.914;2023-08-30T01:34:14;12.90;99.90
16198;DHT22;8206;51.440;6.914;2023-08-30T01:36:42;12.90;86.10
16198;DHT22;8206;51.440;6.914;2023-08-30T01:39:10;12.80;99.90
16198;DHT22;8206;51.440;6.914;2023-08-30T01:41:38;12.80;99.90
16198;DHT22;8206;51.440;6.914;2023-08-30T01:44:05;12.80;1.00
16198;DHT22;8206;51.440;6.914;2023-08-30T01:46:34;12.80;99.90
16198;DHT22;8206;51.440;6.914;2023-08-30T01:49:02;12.80;1.00
16198;DHT22;8206;51.440;6.914;2023-08-30T01:51:30;12.80;1.00
16198;DHT22;8206;51.440;6.914;2023-08-30T01:53:58;12.80;1.00
16198;DHT22;8206;51.440;6.914;2023-08-30T01:56:24;12.80;73.50
16198;DHT22;8206;51.440;6.914;2023-08-30T01:58:51;12.80;99.90
16198;DHT22;8206;51.440;6.914;2023-08-30T02:01:18;12.80;99.90
16198;DHT22;8206;51.440;6.914;2023-08-30T02:03:46;12.80;18.50
16198;DHT22;8206;51.440;6.914;2023-08-30T02:06:17;12.90;1.00
16198;DHT22;8206;51.440;6.914;2023-08-30T02:08:49;12.90;1.00
16198;DHT22;8206;51.440;6.914;2023-08-30T02:11:22;12.90;1.00
16198;DHT22;8206;51.440;6.914;2023-08-30T02:13:50;12.90;1.00
16198;DHT22;8206;51.440;6.914;2023-08-30T02:16:19;12.90;99.90
16198;DHT22;8206;51.440;6.914;2023-08-30T02:18:47;12.90;1.00
16198;DHT22;8206;51.440;6.914;2023-08-30T02:21:15;12.90;99.90
16198;DHT22;8206;51.440;6.914;2023-08-30T02:23:42;12.80;15.10
16198;DHT22;8206;51.440;6.914;2023-08-30T02:26:08;12.80;1.00
16198;DHT22;8206;51.440;6.914;2023-08-30T02:28:35;12.80;1.00
16198;DHT22;8206;51.440;6.914;2023-08-30T02:31:03;12.80;1.00
16198;DHT22;8206;51.440;6.914;2023-08-30T02:33:30;12.70;1.00
16198;DHT22;8206;51.440;6.914;2023-08-30T02:35:58;12.70;1.00
16198;DHT22;8206;51.440;6.914;2023-08-30T02:38:25;12.70;1.00
16198;DHT22;8206;51.440;6.914;2023-08-30T02:40:51;12.60;99.90
16198;DHT22;8206;51.440;6.914;2023-08-30T02:43:18;12.70;1.00
16198;DHT22;8206;51.440;6.914;2023-08-30T02:45:45;12.60;99.90
16198;DHT22;8206;51.440;6.914;2023-08-30T02:48:11;12.60;99.90
16198;DHT22;8206;51.440;6.914;2023-08-30T02:50:38;12.60;1.00
16198;DHT22;8206;51.440;6.914;2023-08-30T02:53:06;12.60;99.90
16198;DHT22;8206;51.440;6.914;2023-08-30T02:55:33;12.50;1.00
16198;DHT22;8206;51.440;6.914;2023-08-30T02:58:00;12.50;1.00
16198;DHT22;8206;51.440;6.914;2023-08-30T03:00:27;12.50;1.00
16198;DHT22;8206;51.440;6.914;2023-08-30T03:02:54;12.50;99.90
16198;DHT22;8206;51.440;6.914;2023-08-30T03:05:20;12.50;1.00
16198;DHT22;8206;51.440;6.914;2023-08-30T03:07:47;12.40;1.00
16198;DHT22;8206;51.440;6.914;2023-08-30T03:10:15;12.40;1.00
16198;DHT22;8206;51.440;6.914;2023-08-30T03:12:42;12.40;1.00
16198;DHT22;8206;51.440;6.914;2023-08-30T03:15:09;12.40;1.00
16198;DHT22;8206;51.440;6.914;2023-08-30T03:17:36;12.40;1.00
16198;DHT22;8206;51.440;6.914;2023-08-30T03:20:03;12.40;80.60
16198;DHT22;8206;51.440;6.914;2023-08-30T03:22:30;12.40;1.00
16198;DHT22;8206;51.440;6.914;2023-08-30T03:24:57;12.30;99.90
16198;DHT22;8206;51.440;6.914;2023-08-30T03:27:25;12.40;1.00
16198;DHT22;8206;51.440;6.914;2023-08-30T03:29:52;12.30;99.90
16198;DHT22;8206;51.440;6.914;2023-08-30T03:32:19;12.30;1.00
16198;DHT22;8206;51.440;6.914;2023-08-30T03:34:46;12.40;1.00
16198;DHT22;8206;51.440;6.914;2023-08-30T03:37:14;12.40;1.00
16198;DHT22;8206;51.440;6.914;2023-08-30T03:39:40;12.40;99.90
16198;DHT22;8206;51.440;6.914;2023-08-30T03:42:07;12.30;1.00
16198;DHT22;8206;51.440;6.914;2023-08-30T03:44:37;12.30;1.00
16198;DHT22;8206;51.440;6.914;2023-08-30T03:47:04;12.30;99.90
16198;DHT22;8206;51.440;6.914;2023-08-30T03:49:31;12.20;99.90
16198;DHT22;8206;51.440;6.914;2023-08-30T03:51:57;12.20;99.90
16198;DHT22;8206;51.440;6.914;2023-08-30T03:54:24;12.20;1.00
16198;DHT22;8206;51.440;6.914;2023-08-30T03:56:50;12.10;1.00
16198;DHT22;8206;51.440;6.914;2023-08-30T03:59:17;12.10;1.00
16198;DHT22;8206;51.440;6.914;2023-08-30T04:01:45;12.00;99.90
16198;DHT22;8206;51.440;6.914;2023-08-30T04:04:12;12.10;59.40
16198;DHT22;8206;51.440;6.914;2023-08-30T04:06:40;12.00;1.00
16198;DHT22;8206;51.440;6.914;2023-08-30T04:09:06;12.00;1.00
16198;DHT22;8206;51.440;6.914;2023-08-30T04:11:33;12.00;99.90
16198;DHT22;8206;51.440;6.914;2023-08-30T04:14:00;12.00;99.90
16198;DHT22;8206;51.440;6.914;2023-08-30T04:16:27;11.90;1.00
16198;DHT22;8206;51.440;6.914;2023-08-30T04:18:55;11.90;67.40
16198;DHT22;8206;51.440;6.914;2023-08-30T04:21:23;11.90;1.00
16198;DHT22;8206;51.440;6.914;2023-08-30T04:23:49;11.90;99.90
16198;DHT22;8206;51.440;6.914;2023-08-30T04:26:16;11.90;99.90
16198;DHT22;8206;51.440;6.914;2023-08-30T04:28:43;11.80;1.00
16198;DHT22;8206;51.440;6.914;2023-08-30T04:31:10;11.90;99.90
16198;DHT22;8206;51.440;6.914;2023-08-30T04:33:36;11.80;1.00
16198;DHT22;8206;51.440;6.914;2023-08-30T04:36:05;11.90;4.70
16198;DHT22;8206;51.440;6.914;2023-08-30T04:38:31;11.90;99.90
16198;DHT22;8206;51.440;6.914;2023-08-30T04:40:58;11.90;1.00
16198;DHT22;8206;51.440;6.914;2023-08-30T04:43:25;11.90;1.00
16198;DHT22;8206;51.440;6.914;2023-08-30T04:45:52;11.90;1.00
16198;DHT22;8206;51.440;6.914;2023-08-30T04:48:19;11.90;44.70
16198;DHT22;8206;51.440;6.914;2023-08-30T04:50:46;12.00;96.50
16198;DHT22;8206;51.440;6.914;2023-08-30T04:53:14;11.90;99.90
16198;DHT22;8206;51.440;6.914;2023-08-30T04:55:41;12.00;99.90
16198;DHT22;8206;51.440;6.914;2023-08-30T04:58:07;12.00;99.90
16198;DHT22;8206;51.440;6.914;2023-08-30T05:00:34;12.00;99.90
16198;DHT22;8206;51.440;6.914;2023-08-30T05:03:01;12.00;99.90
16198;DHT22;8206;51.440;6.914;2023-08-30T05:05:28;12.10;99.90
16198;DHT22;8206;51.440;6.914;2023-08-30T05:07:55;12.20;99.90
16198;DHT22;8206;51.440;6.914;2023-08-30T05:10:23;12.20;99.90
16198;DHT22;8206;51.440;6.914;2023-08-30T05:12:49;12.30;99.90
16198;DHT22;8206;51.440;6.914;2023-08-30T05:15:17;12.30;99.90
16198;DHT22;8206;51.440;6.914;2023-08-30T05:17:44;12.40;99.90
16198;DHT22;8206;51.440;6.914;2023-08-30T05:20:10;12.50;99.90
16198;DHT22;8206;51.440;6.914;2023-08-30T05:22:37;12.60;99.90
16198;DHT22;8206;51.440;6.914;2023-08-30T05:25:04;12.70;99.90
16198;DHT22;8206;51.440;6.914;2023-08-30T05:27:32;12.70;99.90
16198;DHT22;8206;51.440;6.914;2023-08-30T05:29:59;12.80;99.90
16198;DHT22;8206;51.440;6.914;2023-08-30T05:32:26;12.90;99.90
16198;DHT22;8206;51.440;6.914;2023-08-30T05:34:53;13.00;99.90
16198;DHT22;8206;51.440;6.914;2023-08-30T05:37:19;13.10;99.90
16198;DHT22;8206;51.440;6.914;2023-08-30T05:39:46;13.20;99.90
16198;DHT22;8206;51.440;6.914;2023-08-30T05:42:13;13.30;99.90
16198;DHT22;8206;51.440;6.914;2023-08-30T05:44:41;13.40;99.90
16198;DHT22;8206;51.440;6.914;2023-08-30T05:47:07;13.60;99.90
16198;DHT22;8206;51.440;6.914;2023-08-30T05:49:40;13.80;99.90
16198;DHT22;8206;51.440;6.914;2023-08-30T05:52:06;14.00;99.90
16198;DHT22;8206;51.440;6.914;2023-08-30T05:54:33;14.10;99.90
16198;DHT22;8206;51.440;6.914;2023-08-30T05:57:00;14.30;99.90
16198;DHT22;8206;51.440;6.914;2023-08-30T05:59:27;14.60;48.80
16198;DHT22;8206;51.440;6.914;2023-08-30T06:01:55;14.80;1.00
16198;DHT22;8206;51.440;6.914;2023-08-30T06:04:22;15.10;1.00
16198;DHT22;8206;51.440;6.914;2023-08-30T06:06:48;15.20;1.00
16198;DHT22;8206;51.440;6.914;2023-08-30T06:09:15;15.20;1.00
16198;DHT22;8206;51.440;6.914;2023-08-30T06:11:42;15.10;1.00
16198;DHT22;8206;51.440;6.914;2023-08-30T06:14:09;15.00;99.90
16198;DHT22;8206;51.440;6.914;2023-08-30T06:16:36;15.20;99.90
16198;DHT22;8206;51.440;6.914;2023-08-30T06:19:04;15.70;99.90
16198;DHT22;8206;51.440;6.914;2023-08-30T06:21:30;16.20;99.90
16198;DHT22;8206;51.440;6.914;2023-08-30T06:23:57;16.60;1.00
16198;DHT22;8206;51.440;6.914;2023-08-30T06:26:24;17.00;99.90
16198;DHT22;8206;51.440;6.914;2023-08-30T06:28:50;17.40;1.00
16198;DHT22;8206;51.440;6.914;2023-08-30T06:31:17;17.60;1.00
16198;DHT22;8206;51.440;6.914;2023-08-30T06:33:44;17.80;1.00
16198;DHT22;8206;51.440;6.914;2023-08-30T06:36:13;17.50;1.00
16198;DHT22;8206;51.440;6.914;2023-08-30T06:38:41;17.10;1.00
16198;DHT22;8206;51.440;6.914;2023-08-30T06:41:08;16.80;1.00
16198;DHT22;8206;51.440;6.914;2023-08-30T06:43:35;16.80;1.00
16198;DHT22;8206;51.440;6.914;2023-08-30T06:46:01;17.00;1.00
16198;DHT22;8206;51.440;6.914;2023-08-30T06:48:28;17.20;77.70
16198;DHT22;8206;51.440;6.914;2023-08-30T06:50:57;17.20;99.90
16198;DHT22;8206;51.440;6.914;2023-08-30T06:53:25;17.00;1.00
16198;DHT22;8206;51.440;6.914;2023-08-30T06:55:57;17.10;1.00
16198;DHT22;8206;51.440;6.914;2023-08-30T06:58:24;17.10;1.00
16198;DHT22;8206;51.440;6.914;2023-08-30T07:00:50;17.00;1.00
16198;DHT22;8206;51.440;6.914;2023-08-30T07:03:17;16.90;1.00
16198;DHT22;8206;51.440;6.914;2023-08-30T07:05:44;16.90;1.00
16198;DHT22;8206;51.440;6.914;2023-08-30T07:08:13;16.90;1.00
16198;DHT22;8206;51.440;6.914;2023-08-30T07:10:41;16.90;1.00
16198;DHT22;8206;51.440;6.914;2023-08-30T07:13:07;17.00;1.00
16198;DHT22;8206;51.440;6.914;2023-08-30T07:15:36;17.00;1.00
16198;DHT22;8206;51.440;6.914;2023-08-30T07:18:03;17.00;98.80
16198;DHT22;8206;51.440;6.914;2023-08-30T07:20:30;17.10;99.90
16198;DHT22;8206;51.440;6.914;2023-08-30T07:22:56;17.20;1.00
16198;DHT22;8206;51.440;6.914;2023-08-30T07:25:23;17.20;1.00
16198;DHT22;8206;51.440;6.914;2023-08-30T07:27:51;17.40;1.00
16198;DHT22;8206;51.440;6.914;2023-08-30T07:30:18;17.60;1.00
16198;DHT22;8206;51.440;6.914;2023-08-30T07:32:45;17.60;1.00
16198;DHT22;8206;51.440;6.914;2023-08-30T07:35:12;17.60;1.00
16198;DHT22;8206;51.440;6.914;2023-08-30T07:37:38;17.70;1.00
16198;DHT22;8206;51.440;6.914;2023-08-30T07:40:06;17.80;1.00
16198;DHT22;8206;51.440;6.914;2023-08-30T07:42:33;17.90;1.00
16198;DHT22;8206;51.440;6.914;2023-08-30T07:45:01;17.90;1.00
16198;DHT22;8206;51.440;6.914;2023-08-30T07:47:28;18.10;99.90
16198;DHT22;8206;51.440;6.914;2023-08-30T07:49:55;18.20;40.20
16198;DHT22;8206;51.440;6.914;2023-08-30T07:52:21;18.30;99.90
16198;DHT22;8206;51.440;6.914;2023-08-30T07:54:48;18.40;99.90
16198;DHT22;8206;51.440;6.914;2023-08-30T07:57:15;18.40;99.90
16198;DHT22;8206;51.440;6.914;2023-08-30T07:59:41;18.40;99.90
16198;DHT22;8206;51.440;6.914;2023-08-30T08:02:09;18.40;99.90
16198;DHT22;8206;51.440;6.914;2023-08-30T08:04:36;18.50;99.90
16198;DHT22;8206;51.440;6.914;2023-08-30T08:07:03;18.70;99.90
16198;DHT22;8206;51.440;6.914;2023-08-30T08:09:30;18.70;1.00
16198;DHT22;8206;51.440;6.914;2023-08-30T08:11:57;18.80;1.00
16198;DHT22;8206;51.440;6.914;2023-08-30T08:14:24;18.90;1.00
16198;DHT22;8206;51.440;6.914;2023-08-30T08:16:51;19.20;1.00
16198;DHT22;8206;51.440;6.914;2023-08-30T08:19:19;19.70;1.00
16198;DHT22;8206;51.440;6.914;2023-08-30T08:21:47;19.80;1.00
16198;DHT22;8206;51.440;6.914;2023-08-30T08:24:14;20.00;1.00
16198;DHT22;8206;51.440;6.914;2023-08-30T08:26:41;20.10;99.90
16198;DHT22;8206;51.440;6.914;2023-08-30T08:29:08;20.30;99.90
16198;DHT22;8206;51.440;6.914;2023-08-30T08:31:34;20.20;99.90
16198;DHT22;8206;51.440;6.914;2023-08-30T08:34:09;20.10;99.90
16198;DHT22;8206;51.440;6.914;2023-08-30T08:36:38;20.30;99.90
16198;DHT22;8206;51.440;6.914;2023-08-30T08:39:05;20.40;1.00
16198;DHT22;8206;51.440;6.914;2023-08-30T08:41:37;20.70;1.00
16198;DHT22;8206;51.440;6.914;2023-08-30T08:44:06;20.80;1.00
16198;DHT22;8206;51.440;6.914;2023-08-30T08:46:34;21.30;1.00
16198;DHT22;8206;51.440;6.914;2023-08-30T08:49:07;21.70;1.00
16198;DHT22;8206;51.440;6.914;2023-08-30T08:51:35;22.00;99.90
16198;DHT22;8206;51.440;6.914;2023-08-30T08:54:04;22.00;99.90
16198;DHT22;8206;51.440;6.914;2023-08-30T08:56:32;22.20;1.00
16198;DHT22;8206;51.440;6.914;2023-08-30T08:58:59;22.00;1.00
16198;DHT22;8206;51.440;6.914;2023-08-30T09:01:26;21.80;1.00
16198;DHT22;8206;51.440;6.914;2023-08-30T09:03:54;21.70;1.00
16198;DHT22;8206;51.440;6.914;2023-08-30T09:06:21;21.60;1.00
16198;DHT22;8206;51.440;6.914;2023-08-30T09:08:48;21.60;1.00
16198;DHT22;8206;51.440;6.914;2023-08-30T09:11:16;21.40;1.00
16198;DHT22;8206;51.440;6.914;2023-08-30T09:13:43;21.40;1.00
16198;DHT22;8206;51.440;6.914;2023-08-30T09:16:13;21.30;1.00
16198;DHT22;8206;51.440;6.914;2023-08-30T09:18:40;21.20;99.90
16198;DHT22;8206;51.440;6.914;2023-08-30T09:21:07;21.00;1.00
16198;DHT22;8206;51.440;6.914;2023-08-30T09:23:34;20.80;1.00
16198;DHT22;8206;51.440;6.914;2023-08-30T09:26:01;20.60;1.00
16198;DHT22;8206;51.440;6.914;2023-08-30T09:28:30;20.40;1.00
16198;DHT22;8206;51.440;6.914;2023-08-30T09:30:58;20.20;99.90
16198;DHT22;8206;51.440;6.914;2023-08-30T09:33:30;19.80;1.00
16198;DHT22;8206;51.440;6.914;2023-08-30T09:35:57;19.30;4.00
16198;DHT22;8206;51.440;6.914;2023-08-30T09:38:24;19.30;1.00
16198;DHT22;8206;51.440;6.914;2023-08-30T09:40:51;19.30;99.90
16198;DHT22;8206;51.440;6.914;2023-08-30T09:43:19;19.40;99.90
16198;DHT22;8206;51.440;6.914;2023-08-30T09:45:48;19.30;99.90
16198;DHT22;8206;51.440;6.914;2023-08-30T09:48:15;19.10;65.60
16198;DHT22;8206;51.440;6.914;2023-08-30T09:50:45;18.90;1.00
16198;DHT22;8206;51.440;6.914;2023-08-30T09:53:15;18.50;99.90
16198;DHT22;8206;51.440;6.914;2023-08-30T09:55:44;18.30;42.40
16198;DHT22;8206;51.440;6.914;2023-08-30T09:58:11;18.30;99.90
16198;DHT22;8206;51.440;6.914;2023-08-30T10:00:38;18.10;99.90
16198;DHT22;8206;51.440;6.914;2023-08-30T10:03:06;18.00;99.90
16198;DHT22;8206;51.440;6.914;2023-08-30T10:05:34;17.90;99.90
16198;DHT22;8206;51.440;6.914;2023-08-30T10:08:02;17.70;99.90
16198;DHT22;8206;51.440;6.914;2023-08-30T10:10:31;17.60;99.90
16198;DHT22;8206;51.440;6.914;2023-08-30T10:12:58;17.60;99.90
16198;DHT22;8206;51.440;6.914;2023-08-30T10:15:26;17.70;99.90
16198;DHT22;8206;51.440;6.914;2023-08-30T10:17:54;17.50;99.90
16198;DHT22;8206;51.440;6.914;2023-08-30T10:20:22;17.40;1.00
16198;DHT22;8206;51.440;6.914;2023-08-30T10:22:50;17.40;1.00
16198;DHT22;8206;51.440;6.914;2023-08-30T10:25:20;17.50;1.00
16198;DHT22;8206;51.440;6.914;2023-08-30T10:27:48;17.50;1.00
16198;DHT22;8206;51.440;6.914;2023-08-30T10:30:16;17.50;99.90
16198;DHT22;8206;51.440;6.914;2023-08-30T10:32:45;17.40;99.90
16198;DHT22;8206;51.440;6.914;2023-08-30T10:35:12;17.40;1.00
16198;DHT22;8206;51.440;6.914;2023-08-30T10:37:41;17.40;1.00
16198;DHT22;8206;51.440;6.914;2023-08-30T10:40:08;17.40;1.00
16198;DHT22;8206;51.440;6.914;2023-08-30T10:42:35;17.40;1.00
16198;DHT22;8206;51.440;6.914;2023-08-30T10:45:05;17.30;1.00
16198;DHT22;8206;51.440;6.914;2023-08-30T10:47:34;17.30;1.00
16198;DHT22;8206;51.440;6.914;2023-08-30T10:50:06;17.40;1.00
16198;DHT22;8206;51.440;6.914;2023-08-30T10:52:33;17.40;1.00
16198;DHT22;8206;51.440;6.914;2023-08-30T10:55:09;17.30;1.00
16198;DHT22;8206;51.440;6.914;2023-08-30T10:57:37;17.30;1.00
16198;DHT22;8206;51.440;6.914;2023-08-30T11:00:09;17.20;1.00
16198;DHT22;8206;51.440;6.914;2023-08-30T11:02:37;17.10;1.00
16198;DHT22;8206;51.440;6.914;2023-08-30T11:05:06;17.10;1.00
16198;DHT22;8206;51.440;6.914;2023-08-30T11:07:33;17.10;1.00
16198;DHT22;8206;51.440;6.914;2023-08-30T11:10:00;17.20;1.00
16198;DHT22;8206;51.440;6.914;2023-08-30T11:12:28;17.10;1.00
16198;DHT22;8206;51.440;6.914;2023-08-30T11:14:55;17.10;1.00
16198;DHT22;8206;51.440;6.914;2023-08-30T11:17:22;17.20;1.00
16198;DHT22;8206;51.440;6.914;2023-08-30T11:19:50;17.20;1.00
16198;DHT22;8206;51.440;6.914;2023-08-30T11:22:18;17.00;1.00
16198;DHT22;8206;51.440;6.914;2023-08-30T11:24:47;16.90;1.00
16198;DHT22;8206;51.440;6.914;2023-08-30T11:27:16;16.70;1.00
16198;DHT22;8206;51.440;6.914;2023-08-30T11:29:44;16.60;1.00
16198;DHT22;8206;51.440;6.914;2023-08-30T11:32:11;16.40;1.00
16198;DHT22;8206;51.440;6.914;2023-08-30T11:34:38;16.40;1.00
16198;DHT22;8206;51.440;6.914;2023-08-30T11:37:04;16.20;85.90
16198;DHT22;8206;51.440;6.914;2023-08-30T11:39:31;16.40;99.90
16198;DHT22;8206;51.440;6.914;2023-08-30T11:41:58;16.60;98.00
16198;DHT22;8206;51.440;6.914;2023-08-30T11:44:28;16.70;99.90
16198;DHT22;8206;51.440;6.914;2023-08-30T11:46:59;16.70;46.40
16198;DHT22;8206;51.440;6.914;2023-08-30T11:49:27;16.70;18.80
16198;DHT22;8206;51.440;6.914;2023-08-30T11:51:54;16.80;99.90
16198;DHT22;8206;51.440;6.914;2023-08-30T11:54:23;16.90;14.50
16198;DHT22;8206;51.440;6.914;2023-08-30T11:56:50;17.00;27.20
16198;DHT22;8206;51.440;6.914;2023-08-30T11:59:20;17.00;1.00
16198;DHT22;8206;51.440;6.914;2023-08-30T12:01:47;16.80;8.60
16198;DHT22;8206;51.440;6.914;2023-08-30T12:04:16;16.70;24.10
16198;DHT22;8206;51.440;6.914;2023-08-30T12:06:44;16.80;93.90
16198;DHT22;8206;51.440;6.914;2023-08-30T12:09:12;17.00;99.90
16198;DHT22;8206;51.440;6.914;2023-08-30T12:11:38;17.50;23.50
16198;DHT22;8206;51.440;6.914;2023-08-30T12:14:05;17.90;1.00
16198;DHT22;8206;51.440;6.914;2023-08-30T12:16:32;18.00;1.00
16198;DHT22;8206;51.440;6.914;2023-08-30T12:19:07;18.10;1.00
16198;DHT22;8206;51.440;6.914;2023-08-30T12:21:40;18.10;1.00
16198;DHT22;8206;51.440;6.914;2023-08-30T12:24:07;18.10;1.00
16198;DHT22;8206;51.440;6.914;2023-08-30T12:26:34;18.10;1.00
16198;DHT22;8206;51.440;6.914;2023-08-30T12:29:03;18.30;1.00
16198;DHT22;8206;51.440;6.914;2023-08-30T12:31:31;18.20;1.00
16198;DHT22;8206;51.440;6.914;2023-08-30T12:33:57;18.10;1.00
16198;DHT22;8206;51.440;6.914;2023-08-30T12:36:24;18.10;1.00
16198;DHT22;8206;51.440;6.914;2023-08-30T12:38:52;18.20;1.00
16198;DHT22;8206;51.440;6.914;2023-08-30T12:41:19;18.20;1.00
16198;DHT22;8206;51.440;6.914;2023-08-30T12:43:48;18.30;1.00
16198;DHT22;8206;51.440;6.914;2023-08-30T12:46:15;18.30;1.00
16198;DHT22;8206;51.440;6.914;2023-08-30T12:48:42;18.30;1.00
16198;DHT22;8206;51.440;6.914;2023-08-30T12:51:09;18.20;1.00
16198;DHT22;8206;51.440;6.914;2023-08-30T12:53:35;18.00;1.00
16198;DHT22;8206;51.440;6.914;2023-08-30T12:56:03;17.80;1.00
16198;DHT22;8206;51.440;6.914;2023-08-30T12:58:30;17.50;1.00
16198;DHT22;8206;51.440;6.914;2023-08-30T13:00:57;17.30;2.80
16198;DHT22;8206;51.440;6.914;2023-08-30T13:03:23;17.20;1.00
16198;DHT22;8206;51.440;6.914;2023-08-30T13:05:50;17.20;18.50
16198;DHT22;8206;51.440;6.914;2023-08-30T13:08:17;17.10;68.70
16198;DHT22;8206;51.440;6.914;2023-08-30T13:10:43;17.10;99.90
16198;DHT22;8206;51.440;6.914;2023-08-30T13:13:11;17.20;47.90
16198;DHT22;8206;51.440;6.914;2023-08-30T13:15:38;17.20;70.10
16198;DHT22;8206;51.440;6.914;2023-08-30T13:18:05;17.10;99.90
16198;DHT22;8206;51.440;6.914;2023-08-30T13:20:32;16.90;99.90
16198;DHT22;8206;51.440;6.914;2023-08-30T13:22:58;16.90;99.90
16198;DHT22;8206;51.440;6.914;2023-08-30T13:25:25;16.80;99.90
16198;DHT22;8206;51.440;6.914;2023-08-30T13:27:52;16.70;99.90
16198;DHT22;8206;51.440;6.914;2023-08-30T13:30:20;16.60;99.90
16198;DHT22;8206;51.440;6.914;2023-08-30T13:32:47;16.40;99.90
16198;DHT22;8206;51.440;6.914;2023-08-30T13:35:14;16.50;99.90
16198;DHT22;8206;51.440;6.914;2023-08-30T13:37:40;16.60;99.90
16198;DHT22;8206;51.440;6.914;2023-08-30T13:40:08;16.60;99.90
16198;DHT22;8206;51.440;6.914;2023-08-30T13:42:35;16.70;99.90
16198;DHT22;8206;51.440;6.914;2023-08-30T13:45:02;16.70;99.90
16198;DHT22;8206;51.440;6.914;2023-08-30T13:47:31;16.60;99.90
16198;DHT22;8206;51.440;6.914;2023-08-30T13:49:57;16.70;99.90
16198;DHT22;8206;51.440;6.914;2023-08-30T13:52:25;16.70;99.90
16198;DHT22;8206;51.440;6.914;2023-08-30T13:54:51;16.90;99.90
16198;DHT22;8206;51.440;6.914;2023-08-30T13:57:18;17.00;99.90
16198;DHT22;8206;51.440;6.914;2023-08-30T13:59:45;17.00;99.90
16198;DHT22;8206;51.440;6.914;2023-08-30T14:02:12;17.10;99.90
16198;DHT22;8206;51.440;6.914;2023-08-30T14:04:40;17.10;99.90
16198;DHT22;8206;51.440;6.914;2023-08-30T14:07:07;17.30;99.90
16198;DHT22;8206;51.440;6.914;2023-08-30T14:09:34;17.30;99.90
16198;DHT22;8206;51.440;6.914;2023-08-30T14:12:02;17.10;84.50
16198;DHT22;8206;51.440;6.914;2023-08-30T14:14:29;16.90;97.00
16198;DHT22;8206;51.440;6.914;2023-08-30T14:16:56;16.70;99.90
16198;DHT22;8206;51.440;6.914;2023-08-30T14:19:23;16.50;78.70
16198;DHT22;8206;51.440;6.914;2023-08-30T14:21:51;16.50;99.90
16198;DHT22;8206;51.440;6.914;2023-08-30T14:24:20;16.40;83.00
16198;DHT22;8206;51.440;6.914;2023-08-30T14:26:47;16.20;99.90
16198;DHT22;8206;51.440;6.914;2023-08-30T14:29:13;16.20;99.90
16198;DHT22;8206;51.440;6.914;2023-08-30T14:31:40;16.20;99.90
16198;DHT22;8206;51.440;6.914;2023-08-30T14:34:07;16.30;99.90
16198;DHT22;8206;51.440;6.914;2023-08-30T14:36:33;16.20;99.90
16198;DHT22;8206;51.440;6.914;2023-08-30T14:39:02;16.30;99.90
16198;DHT22;8206;51.440;6.914;2023-08-30T14:41:29;16.30;99.90
16198;DHT22;8206;51.440;6.914;2023-08-30T14:43:57;16.30;99.90
16198;DHT22;8206;51.440;6.914;2023-08-30T14:46:24;16.30;99.90
16198;DHT22;8206;51.440;6.914;2023-08-30T14:48:51;16.20;99.90
16198;DHT22;8206;51.440;6.914;2023-08-30T14:51:17;16.10;99.90
16198;DHT22;8206;51.440;6.914;2023-08-30T14:53:44;15.90;99.90
16198;DHT22;8206;51.440;6.914;2023-08-30T14:56:12;15.80;99.90
16198;DHT22;8206;51.440;6.914;2023-08-30T14:58:39;15.70;99.90
16198;DHT22;8206;51.440;6.914;2023-08-30T15:01:05;15.60;1.00
16198;DHT22;8206;51.440;6.914;2023-08-30T15:03:32;15.60;1.00
16198;DHT22;8206;51.440;6.914;2023-08-30T15:05:59;15.60;1.00
16198;DHT22;8206;51.440;6.914;2023-08-30T15:08:26;15.60;1.00
16198;DHT22;8206;51.440;6.914;2023-08-30T15:10:52;15.60;1.00
16198;DHT22;8206;51.440;6.914;2023-08-30T15:13:21;15.60;1.00
16198;DHT22;8206;51.440;6.914;2023-08-30T15:15:47;15.50;1.00
16198;DHT22;8206;51.440;6.914;2023-08-30T15:18:14;15.50;1.00
16198;DHT22;8206;51.440;6.914;2023-08-30T15:20:41;15.50;1.00
16198;DHT22;8206;51.440;6.914;2023-08-30T15:23:11;15.60;1.00
16198;DHT22;8206;51.440;6.914;2023-08-30T15:25:43;15.60;1.00
16198;DHT22;8206;51.440;6.914;2023-08-30T15:28:09;15.70;1.00
16198;DHT22;8206;51.440;6.914;2023-08-30T15:30:37;16.00;1.00
16198;DHT22;8206;51.440;6.914;2023-08-30T15:33:07;16.10;1.00
16198;DHT22;8206;51.440;6.914;2023-08-30T15:35:36;16.40;1.00
16198;DHT22;8206;51.440;6.914;2023-08-30T15:38:03;16.80;1.00
16198;DHT22;8206;51.440;6.914;2023-08-30T15:40:30;17.10;1.00
16198;DHT22;8206;51.440;6.914;2023-08-30T15:42:58;17.30;99.90
16198;DHT22;8206;51.440;6.914;2023-08-30T15:45:25;17.60;99.90
16198;DHT22;8206;51.440;6.914;2023-08-30T15:47:53;18.00;99.90
16198;DHT22;8206;51.440;6.914;2023-08-30T15:50:20;18.20;99.90
16198;DHT22;8206;51.440;6.914;2023-08-30T15:52:47;18.20;27.90
16198;DHT22;8206;51.440;6.914;2023-08-30T15:55:13;17.90;45.90
16198;DHT22;8206;51.440;6.914;2023-08-30T15:57:40;17.80;99.90
16198;DHT22;8206;51.440;6.914;2023-08-30T16:00:08;17.80;99.90